sensor_id;sensor_type;location;lat;lon;timestamp;temperature;humidity
23769;DHT22;12064;50.890;5.424;2023-08-12T00:07:35;24.90;93.70
23769;DHT22;12064;50.890;5.424;2023-08-12T00:16:25;24.90;93.70
23769;DHT22;12064;50.890;5.424;2023-08-12T00:25:16;24.80;93.80
23769;DHT22;12064;50.890;5.424;2023-08-12T00:34:07;24.80;93.90
23769;DHT22;12064;50.890;5.424;2023-08-12T00:42:57;24.70;93.90
23769;DHT22;12064;50.890;5.424;2023-08-12T00:51:50;24.70;93.90
23769;DHT22;12064;50.890;5.424;2023-08-12T01:00:41;24.70;94.00
23769;DHT22;12064;50.890;5.424;2023-08-12T01:09:32;24.70;94.00
23769;DHT22;12064;50.890;5.424;2023-08-12T01:18:24;24.70;94.20
23769;DHT22;12064;50.890;5.424;2023-08-12T01:27:15;24.70;94.20
23769;DHT22;12064;50.890;5.424;2023-08-12T01:36:14;24.60;94.20
23769;DHT22;12064;50.890;5.424;2023-08-12T01:45:07;24.70;94.60
23769;DHT22;12064;50.890;5.424;2023-08-12T01:53:58;24.60;94.30
23769;DHT22;12064;50.890;5.424;2023-08-12T02:02:49;24.60;94.30
23769;DHT22;12064;50.890;5.424;2023-08-12T02:11:40;24.60;94.40
23769;DHT22;12064;50.890;5.424;2023-08-12T02:20:30;24.50;94.40
23769;DHT22;12064;50.890;5.424;2023-08-12T02:29:21;24.50;94.50
23769;DHT22;12064;50.890;5.424;2023-08-12T02:38:12;24.50;94.50
23769;DHT22;12064;50.890;5.424;2023-08-12T02:47:02;24.50;94.50
23769;DHT22;12064;50.890;5.424;2023-08-12T02:55:53;24.50;94.60
23769;DHT22;12064;50.890;5.424;2023-08-12T03:04:44;24.40;94.70
23769;DHT22;12064;50.890;5.424;2023-08-12T03:13:34;24.50;94.70
23769;DHT22;12064;50.890;5.424;2023-08-12T03:22:28;24.40;94.70
23769;DHT22;12064;50.890;5.424;2023-08-12T03:31:19;24.40;94.70
23769;DHT22;12064;50.890;5.424;2023-08-12T03:40:10;24.30;94.70
23769;DHT22;12064;50.890;5.424;2023-08-12T03:49:01;24.30;94.80
23769;DHT22;12064;50.890;5.424;2023-08-12T03:57:53;24.30;94.80
23769;DHT22;12064;50.890;5.424;2023-08-12T04:06:43;24.30;98.00
23769;DHT22;12064;50.890;5.424;2023-08-12T04:15:34;24.20;99.90
23769;DHT22;12064;50.890;5.424;2023-08-12T04:24:25;24.10;99.90
23769;DHT22;12064;50.890;5.424;2023-08-12T04:33:15;24.10;99.90
23769;DHT22;12064;50.890;5.424;2023-08-12T04:42:06;24.00;99.90
23769;DHT22;12064;50.890;5.424;2023-08-12T04:50:57;23.90;99.90
23769;DHT22;12064;50.890;5.424;2023-08-12T04:59:53;24.00;99.90
23769;DHT22;12064;50.890;5.424;2023-08-12T05:08:44;23.90;99.90
23769;DHT22;12064;50.890;5.424;2023-08-12T05:17:34;23.80;99.90
23769;DHT22;12064;50.890;5.424;2023-08-12T05:26:25;23.80;99.90
23769;DHT22;12064;50.890;5.424;2023-08-12T05:35:16;23.80;99.90
23769;DHT22;12064;50.890;5.424;2023-08-12T05:44:06;23.70;99.90
23769;DHT22;12064;50.890;5.424;2023-08-12T05:52:57;23.60;99.90
23769;DHT22;12064;50.890;5.424;2023-08-12T06:01:48;23.60;99.90
23769;DHT22;12064;50.890;5.424;2023-08-12T06:10:41;23.60;99.90
23769;DHT22;12064;50.890;5.424;2023-08-12T06:19:32;23.70;99.90
23769;DHT22;12064;50.890;5.424;2023-08-12T06:28:23;23.80;99.90
23769;DHT22;12064;50.890;5.424;2023-08-12T06:37:13;23.80;99.90
23769;DHT22;12064;50.890;5.424;2023-08-12T06:46:04;23.80;99.90
23769;DHT22;12064;50.890;5.424;2023-08-12T06:54:55;23.80;99.90
23769;DHT22;12064;50.890;5.424;2023-08-12T07:03:45;23.80;99.90
23769;DHT22;12064;50.890;5.424;2023-08-12T07:12:36;23.80;99.90
23769;DHT22;12064;50.890;5.424;2023-08-12T07:21:26;23.80;99.90
23769;DHT22;12064;50.890;5.424;2023-08-12T07:30:17;23.80;99.90
23769;DHT22;12064;50.890;5.424;2023-08-12T07:39:08;23.80;99.90
23769;DHT22;12064;50.890;5.424;2023-08-12T07:47:58;23.80;99.90
23769;DHT22;12064;50.890;5.424;2023-08-12T07:56:49;23.80;99.90
23769;DHT22;12064;50.890;5.424;2023-08-12T08:05:40;23.80;99.90
23769;DHT22;12064;50.890;5.424;2023-08-12T08:14:32;23.80;99.90
23769;DHT22;12064;50.890;5.424;2023-08-12T08:23:23;23.80;99.90
23769;DHT22;12064;50.890;5.424;2023-08-12T08:32:14;23.80;99.90
23769;DHT22;12064;50.890;5.424;2023-08-12T08:41:05;23.80;99.90
23769;DHT22;12064;50.890;5.424;2023-08-12T08:50:01;23.80;99.90
23769;DHT22;12064;50.890;5.424;2023-08-12T08:58:52;23.80;99.90
23769;DHT22;12064;50.890;5.424;2023-08-12T09:07:44;23.70;99.90
23769;DHT22;12064;50.890;5.424;2023-08-12T09:16:35;23.80;99.90
23769;DHT22;12064;50.890;5.424;2023-08-12T09:25:29;23.80;99.90
23769;DHT22;12064;50.890;5.424;2023-08-12T09:34:20;23.80;99.90
23769;DHT22;12064;50.890;5.424;2023-08-12T09:43:12;23.80;99.90
23769;DHT22;12064;50.890;5.424;2023-08-12T09:52:03;23.80;99.90
23769;DHT22;12064;50.890;5.424;2023-08-12T10:00:54;23.70;99.90
23769;DHT22;12064;50.890;5.424;2023-08-12T10:09:46;23.80;99.90
23769;DHT22;12064;50.890;5.424;2023-08-12T10:18:39;23.80;99.90
23769;DHT22;12064;50.890;5.424;2023-08-12T10:27:31;23.80;99.90
23769;DHT22;12064;50.890;5.424;2023-08-12T10:36:22;23.80;99.90
23769;DHT22;12064;50.890;5.424;2023-08-12T10:45:14;23.80;99.90
23769;DHT22;12064;50.890;5.424;2023-08-12T10:54:25;23.80;99.90
23769;DHT22;12064;50.890;5.424;2023-08-12T11:03:22;23.80;99.90
23769;DHT22;12064;50.890;5.424;2023-08-12T11:12:17;23.80;99.90
23769;DHT22;12064;50.890;5.424;2023-08-12T11:21:09;23.80;99.90
23769;DHT22;12064;50.890;5.424;2023-08-12T11:30:00;23.80;99.90
23769;DHT22;12064;50.890;5.424;2023-08-12T11:38:50;23.80;99.90
23769;DHT22;12064;50.890;5.424;2023-08-12T11:47:41;23.80;99.90
23769;DHT22;12064;50.890;5.424;2023-08-12T11:56:33;23.80;99.90
23769;DHT22;12064;50.890;5.424;2023-08-12T12:05:28;23.90;99.90
23769;DHT22;12064;50.890;5.424;2023-08-12T12:14:20;23.90;99.90
23769;DHT22;12064;50.890;5.424;2023-08-12T12:23:11;23.90;99.90
23769;DHT22;12064;50.890;5.424;2023-08-12T12:32:01;23.90;99.90
23769;DHT22;12064;50.890;5.424;2023-08-12T12:40:52;23.90;99.90
23769;DHT22;12064;50.890;5.424;2023-08-12T12:49:45;23.90;99.90
23769;DHT22;12064;50.890;5.424;2023-08-12T12:58:37;23.90;99.90
23769;DHT22;12064;50.890;5.424;2023-08-12T13:07:30;23.90;99.90
23769;DHT22;12064;50.890;5.424;2023-08-12T13:16:21;23.90;99.90
23769;DHT22;12064;50.890;5.424;2023-08-12T13:25:12;23.90;99.90
23769;DHT22;12064;50.890;5.424;2023-08-12T13:34:03;24.00;99.90
23769;DHT22;12064;50.890;5.424;2023-08-12T13:42:56;23.90;99.90
23769;DHT22;12064;50.890;5.424;2023-08-12T13:51:47;24.00;99.90
23769;DHT22;12064;50.890;5.424;2023-08-12T14:00:37;24.00;99.90
23769;DHT22;12064;50.890;5.424;2023-08-12T14:09:28;24.00;99.90
23769;DHT22;12064;50.890;5.424;2023-08-12T14:18:19;24.10;99.90
23769;DHT22;12064;50.890;5.424;2023-08-12T14:27:10;24.10;99.90
23769;DHT22;12064;50.890;5.424;2023-08-12T14:36:00;24.20;99.90
23769;DHT22;12064;50.890;5.424;2023-08-12T14:44:51;24.10;99.90
23769;DHT22;12064;50.890;5.424;2023-08-12T14:53:42;24.10;99.90
23769;DHT22;12064;50.890;5.424;2023-08-12T15:02:33;24.20;99.90
23769;DHT22;12064;50.890;5.424;2023-08-12T15:11:23;24.20;99.90
23769;DHT22;12064;50.890;5.424;2023-08-12T15:20:15;24.30;99.90
23769;DHT22;12064;50.890;5.424;2023-08-12T15:29:06;24.30;99.90
23769;DHT22;12064;50.890;5.424;2023-08-12T15:37:57;24.30;99.90
23769;DHT22;12064;50.890;5.424;2023-08-12T15:46:48;24.30;99.90
23769;DHT22;12064;50.890;5.424;2023-08-12T15:55:38;24.30;99.90
23769;DHT22;12064;50.890;5.424;2023-08-12T16:04:29;24.40;99.90
23769;DHT22;12064;50.890;5.424;2023-08-12T16:13:20;24.40;99.90
23769;DHT22;12064;50.890;5.424;2023-08-12T16:22:12;24.40;99.90
23769;DHT22;12064;50.890;5.424;2023-08-12T16:31:02;24.40;99.90
23769;DHT22;12064;50.890;5.424;2023-08-12T16:39:55;24.40;99.90
23769;DHT22;12064;50.890;5.424;2023-08-12T16:48:46;24.50;99.90
23769;DHT22;12064;50.890;5.424;2023-08-12T16:57:37;24.50;99.90
23769;DHT22;12064;50.890;5.424;2023-08-12T17:06:28;24.50;99.90
23769;DHT22;12064;50.890;5.424;2023-08-12T17:15:18;24.50;99.90
23769;DHT22;12064;50.890;5.424;2023-08-12T17:24:10;24.50;99.90
23769;DHT22;12064;50.890;5.424;2023-08-12T17:33:01;24.50;99.90
23769;DHT22;12064;50.890;5.424;2023-08-12T17:41:52;24.50;99.90
23769;DHT22;12064;50.890;5.424;2023-08-12T17:50:43;24.50;99.90
23769;DHT22;12064;50.890;5.424;2023-08-12T17:59:34;24.50;99.90
23769;DHT22;12064;50.890;5.424;2023-08-12T18:08:24;24.50;99.90
23769;DHT22;12064;50.890;5.424;2023-08-12T18:17:16;24.60;99.90
23769;DHT22;12064;50.890;5.424;2023-08-12T18:26:07;24.60;99.90
23769;DHT22;12064;50.890;5.424;2023-08-12T18:34:57;24.50;99.90
23769;DHT22;12064;50.890;5.424;2023-08-12T18:43:48;24.60;99.90
23769;DHT22;12064;50.890;5.424;2023-08-12T18:52:39;24.60;99.90
23769;DHT22;12064;50.890;5.424;2023-08-12T19:01:29;24.60;99.90
23769;DHT22;12064;50.890;5.424;2023-08-12T19:10:20;24.60;99.90
23769;DHT22;12064;50.890;5.424;2023-08-12T19:19:11;24.60;99.90
23769;DHT22;12064;50.890;5.424;2023-08-12T19:28:02;24.50;99.80
23769;DHT22;12064;50.890;5.424;2023-08-12T19:36:53;24.10;98.50
23769;DHT22;12064;50.890;5.424;2023-08-12T19:45:43;24.10;97.00
23769;DHT22;12064;50.890;5.424;2023-08-12T19:54:34;24.00;97.00
23769;DHT22;12064;50.890;5.424;2023-08-12T20:03:28;24.00;97.40
23769;DHT22;12064;50.890;5.424;2023-08-12T20:12:18;24.00;97.50
23769;DHT22;12064;50.890;5.424;2023-08-12T20:21:09;23.90;97.80
23769;DHT22;12064;50.890;5.424;2023-08-12T20:30:00;23.70;98.20
23769;DHT22;12064;50.890;5.424;2023-08-12T20:38:50;23.60;98.40
23769;DHT22;12064;50.890;5.424;2023-08-12T20:47:41;23.60;98.30
23769;DHT22;12064;50.890;5.424;2023-08-12T20:56:32;23.50;99.00
23769;DHT22;12064;50.890;5.424;2023-08-12T21:05:23;23.40;99.30
23769;DHT22;12064;50.890;5.424;2023-08-12T21:14:13;23.30;99.70
23769;DHT22;12064;50.890;5.424;2023-08-12T21:23:04;23.20;99.90
23769;DHT22;12064;50.890;5.424;2023-08-12T21:31:55;23.70;98.40
23769;DHT22;12064;50.890;5.424;2023-08-12T21:40:46;23.80;98.10
23769;DHT22;12064;50.890;5.424;2023-08-12T21:49:36;23.80;98.30
23769;DHT22;12064;50.890;5.424;2023-08-12T21:58:27;23.80;98.20
23769;DHT22;12064;50.890;5.424;2023-08-12T22:07:18;23.90;98.30
23769;DHT22;12064;50.890;5.424;2023-08-12T22:16:08;23.80;98.50
23769;DHT22;12064;50.890;5.424;2023-08-12T22:24:59;23.80;98.60
23769;DHT22;12064;50.890;5.424;2023-08-12T22:33:50;23.80;98.70
23769;DHT22;12064;50.890;5.424;2023-08-12T22:42:41;23.70;98.80
23769;DHT22;12064;50.890;5.424;2023-08-12T22:51:31;23.70;98.90
23769;DHT22;12064;50.890;5.424;2023-08-12T23:00:22;23.60;98.90
23769;DHT22;12064;50.890;5.424;2023-08-12T23:09:13;23.60;99.00
23769;DHT22;12064;50.890;5.424;2023-08-12T23:18:04;23.60;99.00
23769;DHT22;12064;50.890;5.424;2023-08-12T23:26:54;23.60;99.10
23769;DHT22;12064;50.890;5.424;2023-08-12T23:35:45;23.60;99.00
23769;DHT22;12064;50.890;5.424;2023-08-12T23:44:36;23.50;99.00
23769;DHT22;12064;50.890;5.424;2023-08-12T23:53:26;23.50;99.10
